Belvidere, IL

4:55 AM CDT on August 28, 2015 (GMT -0500)
Belvidere | | Change Station
CLOSE
Current Station
Personal Weather Station
Location: Belvidere, IL
Elevation: 817 ft
Nearby Weather Stations

Elev 817 ft 42.25 °N, 88.83 °W | Updated 55 seconds ago

Partly Cloudy
Partly Cloudy
59.7 °F
Feels Like 59.7 °F
N
0.0
Wind Variable Wind from South

Today
High -- | Low -- °F
--% Chance of Precip.
Yesterday
High -- | Low -- °F
Precip. -- in
6:16 AM 7:36 PM
Waxing Gibbous, 97% visible
Pressure 30.12 in
Visibility 7.0 miles
Clouds Scattered Clouds 10000 ft
Overcast 13000 ft
Dew Point 54 °F
Humidity 83%
Rainfall 0.00 in
Snow Depth Not available.
UV 0 out of 12
Pollen 10.10 out of 12
Air Quality Not available.
Flu Activity Not available.
METAR KRFD 280854Z 00000KT 7SM SCT100 OVC130 16/13 A3012 RMK AO2 SLP198 T01560128 57005
Pressure 30.12 in
Visibility 7.0 miles
Clouds Scattered Clouds 10000 ft
Overcast 13000 ft
Dew Point 54 °F
Humidity 83%
Rainfall 0.00 in
Snow Depth Not available.
UV 0 out of 12
Pollen 10.10 out of 12
Air Quality Not available.
Flu Activity Not available.
METAR KRFD 280854Z 00000KT 7SM SCT100 OVC130 16/13 A3012 RMK AO2 SLP198 T01560128 57005

10-Day Weather Forecast

×

Almanac

Astronomy

Aug. 28, 2015 Rise Set
Actual Time
Civil Twilight
Nautical Twilight
Astronomical Twilight
Moon
Length of Visible Light
Length of Day
Tomorrow will be .
, % of the Moon is Illuminated

Today's Extremes

State Highs State Lows

Community

WunderPhotos

Upload Photos

1,850,352 photos uploaded!

WunderBlogs® & News

Nearby

Air Quality

  Air Quality AQ Index Pollutant
Not available.

Snow Depth

Station Depth Elevation

Earthquake Activity

City Distance Mag. Time & Date
Minimum magnitude displayed is 2.5.

Coastal Water Temperatures

Place Temperature

Stations

Nearby Weather Stations

Station Location Temp. Windchill Dew Point Humidity Wind Precip. Elev Updated Type